createdAt,value
2022-12-31T15:34:42.270Z,96027.41
2022-12-31T15:35:48.576Z,96011.44
2022-12-31T15:36:56.021Z,96027.78
2022-12-31T15:38:00.492Z,96027.72
2022-12-31T15:39:29.970Z,96026.84
2022-12-31T15:40:31.569Z,96032.59
2022-12-31T15:41:42.945Z,96030.25
2022-12-31T15:43:13.996Z,96040.34
2022-12-31T15:44:40.415Z,96033.16
2022-12-31T15:45:42.579Z,96031.69
2022-12-31T15:46:44.568Z,96033.66
2022-12-31T15:47:49.758Z,96024.16
2022-12-31T15:49:05.001Z,96025.72
2022-12-31T15:50:16.096Z,96026.16
2022-12-31T15:51:21.819Z,96022.88
2022-12-31T15:52:56.579Z,96034.53
2022-12-31T15:54:00.672Z,96026.16
2022-12-31T15:55:05.461Z,96027.47
2022-12-31T15:56:08.099Z,96032.81
2022-12-31T15:57:33.893Z,96034.28
2022-12-31T15:58:36.454Z,96031.75
2022-12-31T15:59:39.492Z,96017.69
2022-12-31T16:01:18.989Z,96021.09
2022-12-31T16:02:23.982Z,96020.31
2022-12-31T16:03:27.856Z,96033.91
2022-12-31T16:04:33.338Z,96030.13
2022-12-31T16:05:35.458Z,96033.22
2022-12-31T16:06:38.293Z,96030.03
2022-12-31T16:07:41.260Z,96034.59
2022-12-31T16:08:48.562Z,96031.59
2022-12-31T16:09:53.065Z,96023.47
2022-12-31T16:10:55.459Z,96024.00
2022-12-31T16:11:57.983Z,96024.94
2022-12-31T16:12:59.577Z,96031.94
2022-12-31T16:14:01.256Z,96020.84
2022-12-31T16:15:03.184Z,96027.72
2022-12-31T16:16:08.139Z,96024.75
2022-12-31T16:17:27.755Z,96026.34
2022-12-31T16:18:43.569Z,96033.69
2022-12-31T16:19:47.131Z,96029.69
2022-12-31T16:20:48.829Z,96034.38
2022-12-31T16:21:55.614Z,96032.31
2022-12-31T16:22:58.993Z,96034.38
2022-12-31T16:24:23.792Z,96030.47
2022-12-31T16:25:31.011Z,96023.19
2022-12-31T16:26:54.394Z,96036.19
2022-12-31T16:27:56.456Z,96034.28
2022-12-31T16:29:01.366Z,96029.22
2022-12-31T16:30:16.196Z,96030.56
2022-12-31T16:31:19.858Z,96025.06
2022-12-31T16:32:21.850Z,96031.03
2022-12-31T16:33:23.476Z,96030.56
2022-12-31T16:34:26.612Z,96032.06
2022-12-31T16:35:31.149Z,96030.69
2022-12-31T16:36:32.770Z,96029.00
2022-12-31T16:37:34.365Z,96011.41
2022-12-31T16:38:37.013Z,96024.66
2022-12-31T16:40:06.207Z,96019.72
2022-12-31T16:41:17.574Z,96027.34
2022-12-31T16:42:28.929Z,96031.66
2022-12-31T16:43:35.800Z,96020.78
2022-12-31T16:44:37.698Z,96025.31
2022-12-31T16:45:39.314Z,96027.50
2022-12-31T16:46:41.001Z,96024.81
2022-12-31T16:47:43.874Z,96019.00
2022-12-31T16:48:52.716Z,96019.91
2022-12-31T16:50:21.345Z,96012.88
2022-12-31T16:51:29.283Z,96012.97
2022-12-31T16:52:34.094Z,96017.63
2022-12-31T16:53:37.764Z,96010.53
2022-12-31T16:54:40.606Z,96014.88
2022-12-31T16:55:42.214Z,96015.47
2022-12-31T16:56:44.812Z,96019.66
2022-12-31T16:57:48.823Z,96018.28
2022-12-31T16:58:56.009Z,96021.81
2022-12-31T17:00:01.182Z,96021.81
2022-12-31T17:01:13.607Z,96018.28
2022-12-31T17:02:44.221Z,96032.06
2022-12-31T17:03:49.526Z,96016.81
2022-12-31T17:04:55.975Z,96011.44
2022-12-31T17:05:57.972Z,96021.75
2022-12-31T17:07:30.537Z,96029.44
2022-12-31T17:08:47.237Z,96023.84
2022-12-31T17:09:48.958Z,96017.81
2022-12-31T17:10:50.595Z,96031.72
2022-12-31T17:11:57.608Z,96018.75
2022-12-31T17:13:28.151Z,96010.53
2022-12-31T17:14:25.722Z,96014.31
2022-12-31T17:15:37.920Z,96011.44
2022-12-31T17:17:02.846Z,96016.00
2022-12-31T17:18:06.075Z,96025.88
2022-12-31T17:19:07.821Z,96018.28
2022-12-31T17:20:22.111Z,96012.19
2022-12-31T17:21:27.200Z,96006.84
2022-12-31T17:22:37.276Z,96008.84
2022-12-31T17:23:39.951Z,96033.75
2022-12-31T17:24:41.406Z,96031.88
2022-12-31T17:25:43.009Z,96020.94
2022-12-31T17:26:44.833Z,96023.84
2022-12-31T17:28:22.946Z,96031.81
2022-12-31T17:29:26.556Z,96028.66
2022-12-31T17:30:28.383Z,96041.31
2022-12-31T17:31:29.971Z,96051.97
2022-12-31T17:32:37.774Z,96059.16
2022-12-31T17:33:39.348Z,96052.13
2022-12-31T17:34:48.668Z,96050.84
2022-12-31T17:36:14.499Z,96046.53
2022-12-31T17:37:24.033Z,96040.38
2022-12-31T17:38:32.631Z,96041.81
2022-12-31T17:39:53.035Z,96046.84
2022-12-31T17:41:06.694Z,96042.53
2022-12-31T17:42:10.577Z,96049.78
2022-12-31T17:43:12.706Z,96053.66
2022-12-31T17:44:20.791Z,96048.38
2022-12-31T17:45:22.454Z,96048.22
2022-12-31T17:46:25.271Z,96032.59
2022-12-31T17:47:34.223Z,96043.09
2022-12-31T17:48:36.797Z,96040.03
2022-12-31T17:49:38.446Z,96051.09
2022-12-31T17:51:00.663Z,96055.00
2022-12-31T17:52:02.326Z,96046.81
2022-12-31T17:53:11.809Z,96062.44
2022-12-31T17:54:17.704Z,96065.34
2022-12-31T17:55:19.391Z,96058.25
2022-12-31T17:56:21.054Z,96062.47
2022-12-31T17:57:27.173Z,96073.25
2022-12-31T17:58:38.576Z,96065.22
2022-12-31T17:59:40.256Z,96060.38
2022-12-31T18:00:42.024Z,96066.97
2022-12-31T18:01:43.994Z,96058.75
2022-12-31T18:02:45.840Z,96061.94
2022-12-31T18:03:50.316Z,96074.16
2022-12-31T18:04:53.090Z,96072.06
2022-12-31T18:05:54.819Z,96061.81
2022-12-31T18:06:56.426Z,96072.84
2022-12-31T18:07:58.007Z,96069.66
2022-12-31T18:08:59.619Z,96082.34
2022-12-31T18:10:01.207Z,96084.16
2022-12-31T18:11:02.979Z,96080.44
2022-12-31T18:12:06.232Z,96078.19
2022-12-31T18:13:15.660Z,96075.13
2022-12-31T18:14:17.278Z,96084.13
2022-12-31T18:15:21.749Z,96080.59
2022-12-31T18:16:23.532Z,96083.13
2022-12-31T18:17:25.596Z,96085.53
2022-12-31T18:18:29.473Z,96087.97
2022-12-31T18:20:02.790Z,96087.00
2022-12-31T18:20:55.153Z,96083.31
2022-12-31T18:22:00.577Z,96091.66
2022-12-31T18:23:02.229Z,96087.19
2022-12-31T18:25:07.288Z,96095.72
2022-12-31T18:26:13.390Z,96090.06
2022-12-31T18:27:17.288Z,96096.38
2022-12-31T18:28:19.412Z,96097.34
2022-12-31T18:29:21.646Z,96094.31
2022-12-31T18:30:23.522Z,96098.50
2022-12-31T18:31:28.166Z,96102.19
2022-12-31T18:32:32.023Z,96094.34
2022-12-31T18:33:33.672Z,96096.28
2022-12-31T18:34:35.344Z,96097.22
2022-12-31T18:36:59.331Z,96097.38
2022-12-31T18:38:01.041Z,96096.75
2022-12-31T18:39:04.569Z,96094.97
2022-12-31T18:40:06.742Z,96103.81
2022-12-31T18:41:16.518Z,96109.09
2022-12-31T18:42:18.901Z,96111.53
2022-12-31T18:43:20.665Z,96115.88
2022-12-31T18:44:22.313Z,96114.75
2022-12-31T18:45:24.888Z,96106.22
2022-12-31T18:46:27.680Z,96112.66
2022-12-31T18:47:34.229Z,96116.50
2022-12-31T18:48:41.373Z,96115.22
2022-12-31T18:49:44.869Z,96124.25
2022-12-31T18:50:47.615Z,96108.66
2022-12-31T18:51:53.964Z,96113.94
2022-12-31T18:52:55.578Z,96121.50
2022-12-31T18:53:57.265Z,96121.50
2022-12-31T18:54:58.971Z,96111.88
2022-12-31T18:56:00.670Z,96111.53
2022-12-31T18:57:02.296Z,96110.88
2022-12-31T18:58:03.946Z,96115.41
2022-12-31T18:59:05.723Z,96109.44
2022-12-31T19:00:09.154Z,96111.88
2022-12-31T19:01:31.889Z,96125.38
2022-12-31T19:02:33.657Z,96122.13
2022-12-31T19:03:35.355Z,96118.28
2022-12-31T19:04:36.958Z,96115.06
2022-12-31T19:05:38.783Z,96118.13
2022-12-31T19:06:40.793Z,96117.78
2022-12-31T19:07:42.469Z,96115.38
2022-12-31T19:08:44.170Z,96117.59
2022-12-31T19:09:47.155Z,96119.19
2022-12-31T19:10:52.010Z,96119.81
2022-12-31T19:11:53.604Z,96126.41
2022-12-31T19:12:55.475Z,96122.22
2022-12-31T19:13:57.073Z,96123.19
2022-12-31T19:14:59.674Z,96123.25
2022-12-31T19:16:01.468Z,96129.63
2022-12-31T19:18:03.892Z,96122.44
2022-12-31T19:19:08.716Z,96130.66
2022-12-31T19:20:10.811Z,96128.69
2022-12-31T19:21:22.348Z,96121.47
2022-12-31T19:22:23.960Z,96126.31
2022-12-31T19:23:25.525Z,96123.56
2022-12-31T19:24:27.892Z,96125.28
2022-12-31T19:25:34.332Z,96118.03
2022-12-31T19:26:43.068Z,96121.22
2022-12-31T19:27:45.365Z,96121.16
2022-12-31T19:28:47.855Z,96127.94
2022-12-31T19:29:49.371Z,96125.41
2022-12-31T19:30:51.194Z,96125.47
2022-12-31T19:31:52.839Z,96126.41
2022-12-31T19:32:54.956Z,96111.25
2022-12-31T19:33:56.579Z,96129.91
2022-12-31T19:34:58.250Z,96130.88
2022-12-31T19:36:00.343Z,96128.63
2022-12-31T19:37:02.162Z,96120.66
2022-12-31T19:38:04.045Z,96118.59
2022-12-31T19:39:06.684Z,96128.75
2022-12-31T19:40:14.189Z,96134.63
2022-12-31T19:41:19.088Z,96125.53
2022-12-31T19:42:20.701Z,96135.44
2022-12-31T19:43:23.384Z,96129.16
2022-12-31T19:44:25.005Z,96137.84
2022-12-31T19:45:28.934Z,96131.69
2022-12-31T19:46:30.550Z,96138.44
2022-12-31T19:47:32.201Z,96137.97
2022-12-31T19:48:33.785Z,96124.94
2022-12-31T19:49:35.392Z,96136.56
2022-12-31T19:50:36.999Z,96128.94
2022-12-31T19:51:39.023Z,96133.28
2022-12-31T19:52:40.911Z,96125.34
2022-12-31T19:53:42.539Z,96122.88
2022-12-31T19:54:44.158Z,96124.28
2022-12-31T19:55:45.795Z,96116.72
2022-12-31T19:56:47.457Z,96113.31
2022-12-31T19:57:49.073Z,96130.34
2022-12-31T19:58:50.653Z,96115.19
2022-12-31T19:59:52.230Z,96116.78
2022-12-31T20:01:02.712Z,96121.13
2022-12-31T20:02:04.980Z,96119.84
2022-12-31T20:03:06.651Z,96120.34
2022-12-31T20:04:08.368Z,96123.56
2022-12-31T20:05:11.454Z,96116.19
2022-12-31T20:06:13.577Z,96117.91
2022-12-31T20:07:15.221Z,96116.31
2022-12-31T20:08:17.021Z,96118.06
2022-12-31T20:09:18.631Z,96112.75
2022-12-31T20:10:20.309Z,96113.63
2022-12-31T20:11:23.717Z,96118.47
2022-12-31T20:12:25.613Z,96118.31
2022-12-31T20:13:27.188Z,96115.53
2022-12-31T20:14:28.740Z,96120.00
2022-12-31T20:15:30.648Z,96120.94
2022-12-31T20:16:34.002Z,96119.81
2022-12-31T20:17:36.577Z,96118.72
2022-12-31T20:18:39.061Z,96126.50
2022-12-31T20:19:40.883Z,96119.47
2022-12-31T20:20:50.351Z,96120.72
2022-12-31T20:21:55.168Z,96126.50
2022-12-31T20:22:57.553Z,96118.03
2022-12-31T20:23:59.138Z,96127.88
2022-12-31T20:25:00.824Z,96125.34
2022-12-31T20:26:02.668Z,96128.41
2022-12-31T20:27:04.687Z,96127.66
2022-12-31T20:28:06.821Z,96128.03
2022-12-31T20:29:08.460Z,96131.69
2022-12-31T20:30:10.544Z,96128.41
2022-12-31T20:31:18.632Z,96132.94
2022-12-31T20:32:20.300Z,96127.50
2022-12-31T20:33:22.468Z,96129.13
2022-12-31T20:34:24.134Z,96130.41
2022-12-31T20:35:25.735Z,96132.34
2022-12-31T20:36:27.640Z,96132.34
2022-12-31T20:37:29.268Z,96135.22
2022-12-31T20:38:31.331Z,96140.03
2022-12-31T20:39:32.899Z,96131.84
2022-12-31T20:40:34.717Z,96133.03
2022-12-31T20:41:36.417Z,96133.88
2022-12-31T20:42:39.945Z,96128.28
2022-12-31T20:43:42.096Z,96132.66
2022-12-31T20:44:43.687Z,96132.38
2022-12-31T20:45:45.440Z,96133.16
2022-12-31T20:46:49.201Z,96125.19
2022-12-31T20:47:51.549Z,96125.34
2022-12-31T20:48:55.800Z,96122.31
2022-12-31T20:50:13.036Z,96127.78
2022-12-31T20:51:15.919Z,96129.09
2022-12-31T20:52:17.480Z,96119.09
2022-12-31T20:53:19.062Z,96117.47
2022-12-31T20:54:20.700Z,96113.91
2022-12-31T20:55:22.322Z,96114.84
2022-12-31T20:56:25.800Z,96115.38
2022-12-31T20:57:33.186Z,96115.53
2022-12-31T20:58:35.929Z,96120.06
2022-12-31T20:59:39.242Z,96115.72
2022-12-31T21:00:40.867Z,96117.81
2022-12-31T21:02:19.214Z,96127.66
2022-12-31T21:03:14.599Z,96129.28
2022-12-31T21:04:20.576Z,96120.28
2022-12-31T21:05:22.432Z,96116.94
2022-12-31T21:06:24.197Z,96123.34
2022-12-31T21:07:25.751Z,96124.97
2022-12-31T21:08:32.760Z,96121.28
2022-12-31T21:09:36.538Z,96118.06
2022-12-31T21:10:38.129Z,96128.19
2022-12-31T21:11:58.161Z,96124.19
2022-12-31T21:12:59.775Z,96127.06
2022-12-31T21:14:01.790Z,96127.72
2022-12-31T21:15:03.646Z,96128.03
2022-12-31T21:16:05.434Z,96126.91
2022-12-31T21:17:07.222Z,96131.09
2022-12-31T21:18:08.939Z,96124.84
2022-12-31T21:19:10.647Z,96131.59
2022-12-31T21:20:12.723Z,96129.00
2022-12-31T21:21:14.348Z,96129.50
2022-12-31T21:22:17.213Z,96135.31
2022-12-31T21:23:20.263Z,96120.50
2022-12-31T21:24:24.113Z,96126.28
2022-12-31T21:25:26.028Z,96118.91
2022-12-31T21:26:28.452Z,96122.91
2022-12-31T21:27:30.176Z,96126.28
2022-12-31T21:28:31.987Z,96120.00
2022-12-31T21:29:35.546Z,96119.72
2022-12-31T21:30:39.805Z,96112.75
2022-12-31T21:31:41.544Z,96111.34
2022-12-31T21:32:43.126Z,96114.56
2022-12-31T21:33:48.187Z,96121.31
2022-12-31T21:35:14.598Z,96123.25
2022-12-31T21:36:11.569Z,96122.28
2022-12-31T21:37:13.196Z,96111.66
2022-12-31T21:38:14.793Z,96119.38
2022-12-31T21:39:16.448Z,96126.47
2022-12-31T21:40:18.124Z,96117.13
2022-12-31T21:41:38.384Z,96127.47
2022-12-31T21:42:40.041Z,96126.78
2022-12-31T21:43:41.649Z,96125.69
2022-12-31T21:44:43.294Z,96121.50
2022-12-31T21:45:45.054Z,96126.00
2022-12-31T21:47:45.520Z,96122.13
2022-12-31T21:48:44.683Z,96128.56
2022-12-31T21:49:46.584Z,96126.66
2022-12-31T21:50:50.291Z,96130.31
2022-12-31T21:52:10.426Z,96131.94
2022-12-31T21:53:12.536Z,96132.25
2022-12-31T21:54:34.114Z,96133.84
2022-12-31T21:55:57.489Z,96137.56
2022-12-31T21:56:59.142Z,96135.97
2022-12-31T21:59:46.354Z,96145.47
2022-12-31T22:01:07.853Z,96139.00
2022-12-31T22:02:29.386Z,96140.09
2022-12-31T22:03:31.793Z,96141.06
2022-12-31T22:05:01.461Z,96139.66
2022-12-31T22:06:10.097Z,96137.72
2022-12-31T22:07:11.786Z,96149.28
2022-12-31T22:08:13.391Z,96140.59
2022-12-31T22:09:15.277Z,96142.22
2022-12-31T22:10:17.214Z,96134.34
2022-12-31T22:11:20.391Z,96153.97
2022-12-31T22:12:22.056Z,96148.97
2022-12-31T22:13:24.272Z,96139.00
2022-12-31T22:14:25.921Z,96149.13
2022-12-31T22:15:27.613Z,96144.47
2022-12-31T22:16:29.301Z,96148.84
2022-12-31T22:17:31.025Z,96149.47
2022-12-31T22:18:35.059Z,96146.59
2022-12-31T22:19:54.570Z,96150.28
2022-12-31T22:21:02.377Z,96151.25
2022-12-31T22:22:04.137Z,96143.38
2022-12-31T22:23:05.925Z,96153.50
2022-12-31T22:24:08.127Z,96144.00
2022-12-31T22:25:09.779Z,96151.09
2022-12-31T22:26:13.364Z,96154.00
2022-12-31T22:27:28.338Z,96152.06
2022-12-31T22:28:40.320Z,96155.56
2022-12-31T22:29:42.216Z,96162.34
2022-12-31T22:30:47.637Z,96166.03
2022-12-31T22:31:49.599Z,96155.84
2022-12-31T22:32:51.284Z,96159.59
2022-12-31T22:33:53.437Z,96165.38
2022-12-31T22:34:55.082Z,96165.88
2022-12-31T22:36:04.492Z,96159.91
2022-12-31T22:37:35.301Z,96172.34
2022-12-31T22:38:29.352Z,96164.63
2022-12-31T22:39:44.067Z,96166.06
2022-12-31T22:40:46.528Z,96161.72
2022-12-31T22:41:48.280Z,96169.75
2022-12-31T22:42:49.915Z,96168.78
2022-12-31T22:44:00.225Z,96166.19
2022-12-31T22:45:05.845Z,96169.28
2022-12-31T22:46:16.318Z,96172.97
2022-12-31T22:47:18.107Z,96174.09
2022-12-31T22:48:19.699Z,96165.41
2022-12-31T22:49:21.398Z,96169.09
2022-12-31T22:50:23.033Z,96151.91
2022-12-31T22:51:24.706Z,96159.78
2022-12-31T22:52:26.349Z,96165.88
2022-12-31T22:53:27.952Z,96173.94
2022-12-31T22:54:29.542Z,96167.31
2022-12-31T22:55:31.283Z,96168.63
2022-12-31T22:56:32.928Z,96167.00
2022-12-31T22:57:34.703Z,96162.00
2022-12-31T22:58:36.871Z,96171.03
2022-12-31T22:59:38.484Z,96168.59
2022-12-31T23:00:41.848Z,96169.56
2022-12-31T23:01:43.786Z,96172.25
2022-12-31T23:02:46.175Z,96171.63
2022-12-31T23:03:49.288Z,96177.41
2022-12-31T23:04:50.931Z,96171.28
2022-12-31T23:05:54.413Z,96179.31
2022-12-31T23:06:56.135Z,96170.78
2022-12-31T23:07:59.074Z,96173.97
2022-12-31T23:09:19.152Z,96169.09
2022-12-31T23:10:39.378Z,96167.59
2022-12-31T23:11:41.146Z,96175.28
2022-12-31T23:12:42.787Z,96173.38
2022-12-31T23:14:03.056Z,96167.59
2022-12-31T23:15:23.843Z,96178.19
2022-12-31T23:16:44.704Z,96170.75
2022-12-31T23:18:04.846Z,96171.75
2022-12-31T23:19:25.539Z,96172.91
2022-12-31T23:20:45.592Z,96172.44
2022-12-31T23:22:05.655Z,96157.94
2022-12-31T23:23:10.727Z,96156.53
2022-12-31T23:24:20.221Z,96162.84
2022-12-31T23:25:24.502Z,96157.56
2022-12-31T23:26:26.116Z,96150.66
2022-12-31T23:27:27.884Z,96157.28
2022-12-31T23:28:29.580Z,96153.44
2022-12-31T23:29:31.381Z,96159.66
2022-12-31T23:30:32.953Z,96160.00
2022-12-31T23:31:34.608Z,96148.56
2022-12-31T23:32:36.669Z,96148.25
2022-12-31T23:33:38.627Z,96170.56
2022-12-31T23:34:40.213Z,96169.94
2022-12-31T23:35:41.883Z,96175.06
2022-12-31T23:36:43.604Z,96169.75
2022-12-31T23:37:45.219Z,96176.16
2022-12-31T23:38:47.067Z,96169.06
2022-12-31T23:39:48.614Z,96163.25
2022-12-31T23:40:50.161Z,96170.63
2022-12-31T23:41:51.807Z,96165.44
2022-12-31T23:42:53.387Z,96164.03
2022-12-31T23:43:55.042Z,96163.53
2022-12-31T23:44:56.634Z,96168.66
2022-12-31T23:45:59.846Z,96166.72
2022-12-31T23:47:01.496Z,96171.13
2022-12-31T23:48:03.575Z,96171.44
2022-12-31T23:49:05.223Z,96169.75
2022-12-31T23:50:07.400Z,96164.50
2022-12-31T23:51:09.446Z,96163.69
2022-12-31T23:52:11.021Z,96164.31
2022-12-31T23:53:12.686Z,96185.47
2022-12-31T23:54:14.870Z,96184.75
2022-12-31T23:55:19.297Z,96173.53
2022-12-31T23:56:24.001Z,96188.41
2022-12-31T23:57:25.885Z,96185.19
2022-12-31T23:58:27.536Z,96182.72
2022-12-31T23:59:29.180Z,96187.25
